createdAt,value
2023-01-23T00:01:36.071Z,30.38
2023-01-23T00:04:04.640Z,30.75
2023-01-23T00:06:32.519Z,30.80
2023-01-23T00:08:59.549Z,30.80
2023-01-23T00:11:30.190Z,29.17
2023-01-23T00:13:58.008Z,29.48
2023-01-23T00:16:26.474Z,29.45
2023-01-23T00:18:55.853Z,28.15
2023-01-23T00:21:28.056Z,27.27
2023-01-23T00:23:57.144Z,27.08
2023-01-23T00:26:26.812Z,26.35
2023-01-23T00:28:55.116Z,27.08
2023-01-23T00:31:25.383Z,27.27
2023-01-23T00:34:03.548Z,25.52
2023-01-23T00:36:33.118Z,26.88
2023-01-23T00:39:01.114Z,26.92
2023-01-23T00:41:28.225Z,26.58
2023-01-23T00:43:57.487Z,25.70
2023-01-23T00:46:24.555Z,24.73
2023-01-23T00:48:51.507Z,24.63
2023-01-23T00:51:20.557Z,25.55
2023-01-23T00:53:47.378Z,23.85
2023-01-23T00:56:14.119Z,22.88
2023-01-23T00:58:42.835Z,25.65
2023-01-23T01:01:15.295Z,22.00
2023-01-23T01:03:44.009Z,23.88
2023-01-23T01:06:11.713Z,21.35
2023-01-23T01:08:39.553Z,24.45
2023-01-23T01:11:06.591Z,23.55
2023-01-23T01:13:34.706Z,22.77
2023-01-23T01:16:01.988Z,22.13
2023-01-23T01:18:29.395Z,20.52
2023-01-23T01:20:56.837Z,20.77
2023-01-23T01:23:25.514Z,19.80
2023-01-23T01:25:52.294Z,20.48
2023-01-23T01:28:21.739Z,19.20
2023-01-23T01:30:48.547Z,20.73
2023-01-23T01:33:15.323Z,21.00
2023-01-23T01:35:42.284Z,20.63
2023-01-23T01:38:09.285Z,18.92
2023-01-23T01:40:36.973Z,19.20
2023-01-23T01:43:09.734Z,18.75
2023-01-23T01:46:08.214Z,18.87
2023-01-23T01:49:08.064Z,19.35
2023-01-23T01:51:56.651Z,18.42
2023-01-23T01:54:31.707Z,17.25
2023-01-23T01:57:07.395Z,16.90
2023-01-23T01:59:57.895Z,17.63
2023-01-23T02:02:36.834Z,17.25
2023-01-23T02:05:09.620Z,16.13
2023-01-23T02:07:48.959Z,17.67
2023-01-23T02:10:16.934Z,16.45
2023-01-23T02:12:47.087Z,16.90
2023-01-23T02:15:14.421Z,16.45
2023-01-23T02:17:42.245Z,16.90
2023-01-23T02:20:19.802Z,15.45
2023-01-23T02:23:20.465Z,15.55
2023-01-23T02:26:22.002Z,14.40
2023-01-23T02:28:52.302Z,15.85
2023-01-23T02:31:23.047Z,16.23
2023-01-23T02:33:55.964Z,14.70
2023-01-23T02:36:26.759Z,14.02
2023-01-23T02:39:07.131Z,16.42
2023-01-23T02:41:57.049Z,15.50
2023-01-23T02:44:36.323Z,14.97
2023-01-23T02:47:12.310Z,14.32
2023-01-23T02:49:42.701Z,13.75
2023-01-23T02:52:10.177Z,15.40
2023-01-23T02:54:37.125Z,14.57
2023-01-23T02:57:04.284Z,14.03
2023-01-23T02:59:52.053Z,13.95
2023-01-23T03:02:20.150Z,14.30
2023-01-23T03:04:48.107Z,14.02
2023-01-23T03:07:15.427Z,14.55
2023-01-23T03:09:43.772Z,12.77
2023-01-23T03:12:10.711Z,12.63
2023-01-23T03:14:38.928Z,12.40
2023-01-23T03:17:10.954Z,13.73
2023-01-23T03:19:38.957Z,13.38
2023-01-23T03:22:05.851Z,12.43
2023-01-23T03:24:34.313Z,12.97
2023-01-23T03:27:03.240Z,13.63
2023-01-23T03:29:55.471Z,12.40
2023-01-23T03:32:22.799Z,11.67
2023-01-23T03:34:49.609Z,12.48
2023-01-23T03:37:17.464Z,12.80
2023-01-23T03:40:04.373Z,11.70
2023-01-23T03:42:34.630Z,11.65
2023-01-23T03:45:03.473Z,12.00
2023-01-23T03:47:33.402Z,11.85
2023-01-23T03:50:00.420Z,11.95
2023-01-23T03:52:29.898Z,11.45
2023-01-23T03:54:57.790Z,9.63
2023-01-23T03:57:24.479Z,11.57
2023-01-23T04:00:00.343Z,10.83
2023-01-23T04:02:40.715Z,10.88
2023-01-23T04:05:10.118Z,11.02
2023-01-23T04:07:38.025Z,10.68
2023-01-23T04:10:05.212Z,10.25
2023-01-23T04:12:32.079Z,10.37
2023-01-23T04:14:59.631Z,10.73
2023-01-23T04:17:27.295Z,9.90
2023-01-23T04:19:53.958Z,10.03
2023-01-23T04:22:20.675Z,10.25
2023-01-23T04:24:48.549Z,9.27
2023-01-23T04:27:17.758Z,9.68
2023-01-23T04:29:44.850Z,10.35
2023-01-23T04:32:11.752Z,9.37
2023-01-23T04:34:44.179Z,10.50
2023-01-23T04:37:11.812Z,9.60
2023-01-23T04:39:39.512Z,8.52
2023-01-23T04:42:07.349Z,10.18
2023-01-23T04:44:58.024Z,8.52
2023-01-23T04:47:59.548Z,8.43
2023-01-23T04:50:26.305Z,8.57
2023-01-23T04:52:54.143Z,8.85
2023-01-23T04:55:21.039Z,8.93
2023-01-23T04:57:48.969Z,8.98
2023-01-23T05:00:22.798Z,8.23
2023-01-23T05:02:50.782Z,8.32
2023-01-23T05:05:20.732Z,9.20
2023-01-23T05:07:51.186Z,9.25
2023-01-23T05:10:18.701Z,7.87
2023-01-23T05:12:46.539Z,8.07
2023-01-23T05:15:13.704Z,7.72
2023-01-23T05:17:42.075Z,7.22
2023-01-23T05:20:11.616Z,8.63
2023-01-23T05:22:51.962Z,9.57
2023-01-23T05:25:21.431Z,9.43
2023-01-23T05:27:48.702Z,8.27
2023-01-23T05:30:16.387Z,8.17
2023-01-23T05:32:44.934Z,8.77
2023-01-23T05:35:17.690Z,8.53
2023-01-23T05:37:48.702Z,8.02
2023-01-23T05:40:17.168Z,12.18
2023-01-23T05:43:16.242Z,13.20
2023-01-23T05:46:10.388Z,12.82
2023-01-23T05:48:49.444Z,13.18
2023-01-23T05:51:17.095Z,15.17
2023-01-23T05:53:44.393Z,16.33
2023-01-23T05:56:12.649Z,15.18
2023-01-23T05:59:03.724Z,15.23
2023-01-23T06:01:44.121Z,15.10
2023-01-23T06:04:29.580Z,19.75
2023-01-23T06:07:16.491Z,25.30
2023-01-23T06:09:43.532Z,26.52
2023-01-23T06:12:10.498Z,26.37
2023-01-23T06:14:38.109Z,27.10
2023-01-23T06:17:06.641Z,26.15
2023-01-23T06:19:34.048Z,31.15
2023-01-23T06:22:00.989Z,28.35
2023-01-23T06:24:32.778Z,44.80
2023-01-23T06:27:00.157Z,88.32
2023-01-23T06:29:27.105Z,113.28
2023-01-23T06:31:53.927Z,139.15
2023-01-23T06:34:21.227Z,146.40
2023-01-23T06:36:56.455Z,150.02
2023-01-23T06:39:26.938Z,145.93
2023-01-23T06:41:54.618Z,140.32
2023-01-23T06:44:23.740Z,131.70
2023-01-23T06:46:53.361Z,135.33
2023-01-23T06:49:22.570Z,121.97
2023-01-23T06:51:49.346Z,120.80
2023-01-23T06:54:16.151Z,119.25
2023-01-23T06:56:43.903Z,116.72
2023-01-23T06:59:13.435Z,118.97
2023-01-23T07:01:41.891Z,107.77
2023-01-23T07:04:34.601Z,107.90
2023-01-23T07:07:04.299Z,104.67
2023-01-23T07:09:32.809Z,102.68
2023-01-23T07:12:22.464Z,100.27
2023-01-23T07:14:49.797Z,99.23
2023-01-23T07:17:22.407Z,99.45
2023-01-23T07:19:50.744Z,101.32
2023-01-23T07:22:23.040Z,97.53
2023-01-23T07:24:49.837Z,91.55
2023-01-23T07:27:16.876Z,94.03
2023-01-23T07:29:45.739Z,89.80
2023-01-23T07:32:12.605Z,89.72
2023-01-23T07:34:39.479Z,82.73
2023-01-23T07:37:06.527Z,83.40
2023-01-23T07:39:33.266Z,85.95
2023-01-23T07:42:00.365Z,84.28
2023-01-23T07:44:28.760Z,84.45
2023-01-23T07:46:56.389Z,85.20
2023-01-23T07:49:23.227Z,84.45
2023-01-23T07:51:50.031Z,85.32
2023-01-23T07:54:16.850Z,84.10
2023-01-23T07:56:43.685Z,85.30
2023-01-23T07:59:12.779Z,84.28
2023-01-23T08:01:39.603Z,86.32
2023-01-23T08:04:06.327Z,81.75
2023-01-23T08:06:34.186Z,91.65
2023-01-23T08:09:00.943Z,82.60
2023-01-23T08:11:27.848Z,81.30
2023-01-23T08:13:56.919Z,85.67
2023-01-23T08:16:23.819Z,82.57
2023-01-23T08:18:51.721Z,91.40
2023-01-23T08:21:18.603Z,103.15
2023-01-23T08:23:46.361Z,111.25
2023-01-23T08:26:14.900Z,116.55
2023-01-23T08:28:42.517Z,126.78
2023-01-23T08:31:12.070Z,135.40
2023-01-23T08:33:39.898Z,137.52
2023-01-23T08:36:11.048Z,133.98
2023-01-23T08:38:38.489Z,136.10
2023-01-23T08:41:09.883Z,130.20
2023-01-23T08:43:36.659Z,135.60
2023-01-23T08:46:05.821Z,133.98
2023-01-23T08:48:35.441Z,130.90
2023-01-23T08:51:06.682Z,133.95
2023-01-23T08:53:34.240Z,128.95
2023-01-23T08:56:16.582Z,126.60
2023-01-23T08:58:46.428Z,121.47
2023-01-23T09:01:15.321Z,117.97
2023-01-23T09:03:42.271Z,118.00
2023-01-23T09:06:10.949Z,113.00
2023-01-23T09:08:37.744Z,115.38
2023-01-23T09:11:06.830Z,112.95
2023-01-23T09:13:36.233Z,113.63
2023-01-23T09:16:04.466Z,107.22
2023-01-23T09:18:31.561Z,110.00
2023-01-23T09:20:58.318Z,104.88
2023-01-23T09:23:25.351Z,99.82
2023-01-23T09:25:53.212Z,101.43
2023-01-23T09:28:20.276Z,98.83
2023-01-23T09:30:47.112Z,95.40
2023-01-23T09:33:13.900Z,95.03
2023-01-23T09:35:41.654Z,90.88
2023-01-23T09:38:08.557Z,89.63
2023-01-23T09:40:48.232Z,92.68
2023-01-23T09:43:36.753Z,86.25
2023-01-23T09:46:24.693Z,87.38
2023-01-23T09:49:15.396Z,84.25
2023-01-23T09:51:56.569Z,83.60
2023-01-23T09:54:46.634Z,80.05
2023-01-23T09:57:24.350Z,80.05
2023-01-23T10:00:05.561Z,79.33
2023-01-23T10:02:33.080Z,78.45
2023-01-23T10:05:02.752Z,76.22
2023-01-23T10:08:05.103Z,72.25
2023-01-23T10:10:58.041Z,69.63
2023-01-23T10:13:48.033Z,69.75
2023-01-23T10:16:49.916Z,68.80
2023-01-23T10:20:02.964Z,64.47
2023-01-23T10:22:51.119Z,65.18
2023-01-23T10:25:32.664Z,62.80
2023-01-23T10:28:21.624Z,65.65
2023-01-23T10:30:54.764Z,70.10
2023-01-23T10:33:41.796Z,61.50
2023-01-23T10:36:26.238Z,60.92
2023-01-23T10:39:14.391Z,57.35
2023-01-23T10:41:43.054Z,59.50
2023-01-23T10:44:19.476Z,60.78
2023-01-23T10:47:15.937Z,57.88
2023-01-23T10:49:45.494Z,60.58
2023-01-23T10:52:35.724Z,59.95
2023-01-23T10:55:26.584Z,59.08
2023-01-23T10:57:55.374Z,58.88
2023-01-23T11:00:34.030Z,55.40
2023-01-23T11:03:19.811Z,59.10
2023-01-23T11:06:02.059Z,55.50
2023-01-23T11:08:36.530Z,58.70
2023-01-23T11:11:15.846Z,56.42
2023-01-23T11:13:44.525Z,56.58
2023-01-23T11:16:17.869Z,54.53
2023-01-23T11:18:54.856Z,53.83
2023-01-23T11:21:24.412Z,51.25
2023-01-23T11:24:39.749Z,52.07
2023-01-23T11:27:23.546Z,49.80
2023-01-23T11:29:58.699Z,46.80
2023-01-23T11:32:25.618Z,50.70
2023-01-23T11:35:03.331Z,48.35
2023-01-23T11:37:39.692Z,48.77
2023-01-23T11:40:14.943Z,43.80
2023-01-23T11:42:44.676Z,41.03
2023-01-23T11:45:44.338Z,44.17
2023-01-23T11:48:31.424Z,42.10
2023-01-23T11:51:32.844Z,41.10
2023-01-23T11:54:28.356Z,41.33
2023-01-23T11:57:06.048Z,41.53
2023-01-23T11:59:35.856Z,40.05
2023-01-23T12:02:21.252Z,38.30
2023-01-23T12:05:12.401Z,37.17
2023-01-23T12:08:07.692Z,37.17
2023-01-23T12:11:16.469Z,37.60
2023-01-23T12:13:59.935Z,37.85
2023-01-23T12:16:59.972Z,35.45
2023-01-23T12:19:40.256Z,36.35
2023-01-23T12:22:25.269Z,34.63
2023-01-23T12:25:25.958Z,33.10
2023-01-23T12:28:04.224Z,32.72
2023-01-23T12:31:12.734Z,31.85
2023-01-23T12:34:03.523Z,31.48
2023-01-23T12:37:08.466Z,31.80
2023-01-23T12:39:52.935Z,29.92
2023-01-23T12:42:25.587Z,32.20
2023-01-23T12:45:01.212Z,29.47
2023-01-23T12:47:34.935Z,32.78
2023-01-23T12:50:19.544Z,28.60
2023-01-23T12:52:52.296Z,30.65
2023-01-23T12:55:28.243Z,31.83
2023-01-23T12:58:08.150Z,38.03
2023-01-23T13:00:54.547Z,34.25
2023-01-23T13:03:46.403Z,35.65
2023-01-23T13:06:25.256Z,39.03
2023-01-23T13:09:16.634Z,34.53
2023-01-23T13:12:01.622Z,37.20
2023-01-23T13:14:39.567Z,43.15
2023-01-23T13:17:41.295Z,42.75
2023-01-23T13:20:46.829Z,958.35
2023-01-23T13:23:32.531Z,462.02
2023-01-23T13:26:22.718Z,51.67
2023-01-23T13:28:54.931Z,59.03
2023-01-23T13:31:46.768Z,60.47
2023-01-23T13:34:16.836Z,61.30
2023-01-23T13:36:54.262Z,54.70
2023-01-23T13:39:29.644Z,52.80
2023-01-23T13:42:14.069Z,54.60
2023-01-23T13:45:19.244Z,48.88
2023-01-23T14:22:37.047Z,39.60
2023-01-23T14:25:04.205Z,42.20
2023-01-23T14:27:51.305Z,39.55
2023-01-23T14:30:26.625Z,39.20
2023-01-23T14:32:53.853Z,36.93
2023-01-23T14:35:34.196Z,36.53
2023-01-23T14:38:05.150Z,37.75
2023-01-23T14:40:46.638Z,35.13
2023-01-23T14:43:28.420Z,32.73
2023-01-23T14:46:18.608Z,32.00
2023-01-23T14:48:52.108Z,34.55
2023-01-23T14:51:24.957Z,33.55
2023-01-23T14:53:58.556Z,31.15
2023-01-23T14:56:31.974Z,32.30
2023-01-23T14:59:03.202Z,29.30
2023-01-23T15:01:30.379Z,27.87
2023-01-23T15:04:00.246Z,27.73
2023-01-23T15:06:28.327Z,29.08
2023-01-23T15:09:04.484Z,28.15
2023-01-23T15:11:31.445Z,27.33
2023-01-23T15:14:02.962Z,26.52
2023-01-23T15:16:36.091Z,26.35
2023-01-23T15:19:17.167Z,25.10
2023-01-23T15:21:44.841Z,26.77
2023-01-23T15:24:14.742Z,25.52
2023-01-23T15:27:03.895Z,24.70
2023-01-23T15:29:32.017Z,25.95
2023-01-23T15:31:59.827Z,25.23
2023-01-23T15:34:32.970Z,23.15
2023-01-23T15:37:09.212Z,20.75
2023-01-23T15:39:55.325Z,21.77
2023-01-23T15:42:28.613Z,23.92
2023-01-23T15:44:55.897Z,21.73
2023-01-23T15:47:23.419Z,23.48
2023-01-23T15:49:50.333Z,22.20
2023-01-23T15:52:27.860Z,22.13
2023-01-23T15:55:07.019Z,23.07
2023-01-23T15:57:37.414Z,20.77
2023-01-23T16:00:28.662Z,21.25
2023-01-23T16:02:58.313Z,21.55
2023-01-23T16:05:32.175Z,22.57
2023-01-23T16:08:03.337Z,21.83
2023-01-23T16:10:39.560Z,18.73
2023-01-23T16:13:08.934Z,18.63
2023-01-23T16:15:38.142Z,19.27
2023-01-23T16:18:05.016Z,19.90
2023-01-23T16:20:38.704Z,17.83
2023-01-23T16:23:19.464Z,18.97
2023-01-23T16:25:47.035Z,17.67
2023-01-23T16:28:20.653Z,19.02
2023-01-23T16:30:48.594Z,19.45
2023-01-23T16:33:16.419Z,17.55
2023-01-23T16:35:44.057Z,17.27
2023-01-23T16:38:29.722Z,17.40
2023-01-23T16:40:59.619Z,18.83
2023-01-23T16:43:29.117Z,16.30
2023-01-23T16:45:58.389Z,15.98
2023-01-23T16:48:28.041Z,17.00
2023-01-23T16:51:12.687Z,15.43
2023-01-23T16:53:43.093Z,15.15
2023-01-23T16:56:22.184Z,14.93
2023-01-23T16:58:50.273Z,14.38
2023-01-23T17:01:23.330Z,15.18
2023-01-23T17:03:56.924Z,13.82
2023-01-23T17:06:23.850Z,15.47
2023-01-23T17:08:52.268Z,13.95
2023-01-23T17:11:28.180Z,13.25
2023-01-23T17:13:59.745Z,13.43
2023-01-23T17:16:29.345Z,14.43
2023-01-23T17:19:00.393Z,12.02
2023-01-23T17:21:33.024Z,13.32
2023-01-23T17:24:00.046Z,12.75
2023-01-23T17:26:26.883Z,11.82
2023-01-23T17:28:56.325Z,12.50
2023-01-23T17:31:27.476Z,11.50
2023-01-23T17:33:55.614Z,11.57
2023-01-23T17:36:22.443Z,11.30
2023-01-23T17:38:53.381Z,11.00
2023-01-23T17:41:20.084Z,11.10
2023-01-23T17:43:48.887Z,9.48
2023-01-23T17:46:37.559Z,9.80
2023-01-23T17:49:05.248Z,10.13
2023-01-23T17:51:33.491Z,10.55
2023-01-23T17:54:00.242Z,10.03
2023-01-23T17:56:27.103Z,10.32
2023-01-23T17:58:56.515Z,10.98
2023-01-23T18:01:25.359Z,9.90
2023-01-23T18:03:53.610Z,10.95
2023-01-23T18:06:22.735Z,9.60
2023-01-23T18:08:49.559Z,9.85
2023-01-23T18:11:20.610Z,9.48
2023-01-23T18:14:01.446Z,9.07
2023-01-23T18:16:37.057Z,9.20
2023-01-23T18:19:17.865Z,8.32
2023-01-23T18:21:53.583Z,8.75
2023-01-23T18:24:24.159Z,8.13
2023-01-23T18:26:58.477Z,9.30
2023-01-23T18:30:00.645Z,7.72
2023-01-23T18:32:33.275Z,8.30
2023-01-23T18:35:25.840Z,8.50
2023-01-23T18:38:15.940Z,8.43
2023-01-23T18:41:01.853Z,8.55
2023-01-23T18:44:07.133Z,8.50
2023-01-23T18:46:34.219Z,7.93
2023-01-23T18:49:01.268Z,7.90
2023-01-23T18:51:59.376Z,7.95
2023-01-23T18:54:26.322Z,7.90
2023-01-23T18:57:08.037Z,8.07
2023-01-23T18:59:50.323Z,8.18
2023-01-23T19:02:28.518Z,8.43
2023-01-23T19:05:01.235Z,8.73
2023-01-23T19:07:28.168Z,8.02
2023-01-23T19:09:55.417Z,8.70
2023-01-23T19:12:33.953Z,8.15
2023-01-23T19:15:48.707Z,9.32
2023-01-23T19:18:46.451Z,8.63
2023-01-23T19:21:26.627Z,8.17
2023-01-23T19:23:58.759Z,8.82
2023-01-23T19:26:31.918Z,7.85
2023-01-23T19:29:08.419Z,8.38
2023-01-23T19:32:02.982Z,9.02
2023-01-23T19:34:34.109Z,9.43
2023-01-23T19:37:00.973Z,7.95
2023-01-23T19:39:27.720Z,9.60
2023-01-23T19:41:54.508Z,8.65
2023-01-23T19:44:23.998Z,9.13
2023-01-23T19:46:51.978Z,8.77
2023-01-23T19:49:18.917Z,8.73
2023-01-23T19:51:46.417Z,9.10
2023-01-23T19:54:14.693Z,9.13
2023-01-23T19:56:42.931Z,8.82
2023-01-23T19:59:10.451Z,9.15
2023-01-23T20:01:45.503Z,8.32
2023-01-23T20:04:17.469Z,8.27
2023-01-23T20:06:45.570Z,8.65
2023-01-23T20:09:14.535Z,8.63
2023-01-23T20:11:45.261Z,9.00
2023-01-23T20:14:12.319Z,9.13
2023-01-23T20:16:42.759Z,8.47
2023-01-23T20:19:14.393Z,8.73
2023-01-23T20:21:42.006Z,8.25
2023-01-23T20:24:08.862Z,8.65
2023-01-23T20:26:38.145Z,8.85
2023-01-23T20:29:07.882Z,8.18
2023-01-23T20:31:35.628Z,8.35
2023-01-23T20:34:03.749Z,9.40
2023-01-23T20:36:30.510Z,9.23
2023-01-23T20:38:59.223Z,9.77
2023-01-23T20:41:26.939Z,9.13
2023-01-23T20:43:53.684Z,9.90
2023-01-23T20:46:20.386Z,8.57
2023-01-23T20:48:47.512Z,9.20
2023-01-23T20:51:16.351Z,9.70
2023-01-23T20:53:43.633Z,9.80
2023-01-23T20:56:16.183Z,9.10
2023-01-23T20:59:04.407Z,9.97
2023-01-23T21:01:54.969Z,9.50
2023-01-23T21:04:23.183Z,10.17
2023-01-23T21:06:49.954Z,9.55
2023-01-23T21:09:17.007Z,9.32
2023-01-23T21:11:43.864Z,9.30
2023-01-23T21:14:13.629Z,10.48
2023-01-23T21:16:42.968Z,9.52
2023-01-23T21:19:09.979Z,9.63
2023-01-23T21:21:37.539Z,9.55
2023-01-23T21:24:04.501Z,9.57
2023-01-23T21:26:31.366Z,9.48
2023-01-23T21:28:58.543Z,9.48
2023-01-23T21:31:28.919Z,9.45
2023-01-23T21:33:58.372Z,10.63
2023-01-23T21:36:25.463Z,9.67
2023-01-23T21:38:53.139Z,9.90
2023-01-23T21:41:20.169Z,10.03
2023-01-23T21:43:48.125Z,9.52
2023-01-23T21:46:15.256Z,11.20
2023-01-23T21:48:42.269Z,10.40
2023-01-23T21:51:14.600Z,10.30
2023-01-23T21:53:44.102Z,10.30
2023-01-23T21:56:12.507Z,10.47
2023-01-23T21:58:39.380Z,11.10
2023-01-23T22:01:29.544Z,10.60
2023-01-23T22:03:57.283Z,9.77
2023-01-23T22:06:24.120Z,10.98
2023-01-23T22:08:50.885Z,10.27
2023-01-23T22:11:17.692Z,10.07
2023-01-23T22:13:44.771Z,10.20
2023-01-23T22:16:15.536Z,11.07
2023-01-23T22:18:45.648Z,11.13
2023-01-23T22:21:12.756Z,11.98
2023-01-23T22:23:40.230Z,10.90
2023-01-23T22:26:10.538Z,11.97
2023-01-23T22:28:38.853Z,11.60
2023-01-23T22:31:10.058Z,10.93
2023-01-23T22:33:42.103Z,10.88
2023-01-23T22:36:13.092Z,10.93
2023-01-23T22:38:39.909Z,11.25
2023-01-23T22:41:06.611Z,10.65
2023-01-23T22:43:34.507Z,10.13
2023-01-23T22:46:07.171Z,11.25
2023-01-23T22:48:35.614Z,10.73
2023-01-23T22:51:04.298Z,10.80
2023-01-23T22:53:31.389Z,11.02
2023-01-23T22:55:58.390Z,10.52
2023-01-23T22:58:25.454Z,10.18
2023-01-23T23:00:53.369Z,11.20
2023-01-23T23:03:21.917Z,9.90
2023-01-23T23:08:55.383Z,10.13
2023-01-23T23:11:27.071Z,10.47
2023-01-23T23:13:55.360Z,11.20
2023-01-23T23:16:26.276Z,10.85
2023-01-23T23:18:55.034Z,12.17
2023-01-23T23:21:24.671Z,9.82
2023-01-23T23:23:57.174Z,10.30
2023-01-23T23:26:26.727Z,9.90
2023-01-23T23:28:54.609Z,10.43
2023-01-23T23:31:21.553Z,10.82
2023-01-23T23:33:48.451Z,9.85
2023-01-23T23:36:15.271Z,9.95
2023-01-23T23:38:42.059Z,10.13
2023-01-23T23:41:12.659Z,9.85
2023-01-23T23:43:39.483Z,10.13
2023-01-23T23:46:08.204Z,9.95
2023-01-23T23:48:36.758Z,9.30
2023-01-23T23:51:06.890Z,9.77
2023-01-23T23:53:34.244Z,9.55
2023-01-23T23:56:01.965Z,9.43
2023-01-23T23:58:28.726Z,9.52
